Airfield :
LOGIN :

Register | Disclaimer

   EN    FR    IT 

 










Legend :    VFR   Marginal VFR   IFR   Intensive IFR   Very Intensive IFR
Visi :
Ceiling :
>= 8 km
>= 3000ft
5 to 8 km
1000 to 3000 ft
1500m to 5 km
500 to 1000 ft
800 to 1500m
200 to 500 ft
< 800m
< 200 ft
Symbols :   Thunderstorms  Fog  Heavy snow  Heavy precipitations  Wind > 20 kt
SIGMETs :     Misc.  Thunderstorms  Icing  Turbulence  Mountain Waves  Volcanic Ashes






- Airport Elevation : 219 ft
- IATA code : DNR


LFRD - Dinard

CURRENT METAR :
  • 110400Z AUTO 04007KT 9999 FEW014 SCT031 BKN038 06/04 Q1013 TEMPO 4000 SHRA BKN015TCU

EXPIRED METARs :
  • 110330Z AUTO 03007KT 9999 BKN014 BKN019 BKN030 06/04 Q1013 TEMPO 4000 SHRA BKN015TCU
  • 110300Z AUTO 02006KT 9999 -RADZ SCT014 BKN020 BKN034 06/04 Q1013 TEMPO 4000 SHRA BKN015TCU
  • 110230Z AUTO 03006KT 350V050 9999 FEW014 BKN034 BKN041 06/04 Q1012 TEMPO 4000 SHRA BKN015TCU
  • 110200Z AUTO 02007KT 9999 FEW018 SCT041 BKN050 06/04 Q1012 TEMPO 4000 SHRA BKN012TCU
  • 110130Z AUTO 03006KT 9999 BKN015 06/05 Q1012 TEMPO 4000 SHRA BKN012TCU

TAF TAF LFRD
Valid from the 11 at 00:00 until the 12 at 00:00 UTC


102300Z 1100/1124 36010KT 9999 BKN020
PROB40
TEMPO 1100/1104 4000 SHRA BKN012TCU
TEMPO 1104/1115 4000 SHRA BKN015TCU
PROB40
TEMPO 1107/1114 03015G30KT 3000 SHRAGS BKN008 BKN015CB
BECMG 1122/1124 VRB05KT
ATIS : +33 2 99 16 81 50



MET'MAP, your aeronautical weather chart ! - Copyright ORBIFLY December 2007 - Disclaimer

ORBIFLY MET'MAP TEAM :

Programming & Development : Alexandra Zaïnal
Concept & original design : Baudouin d'Aumeries
Assistance for programming : Marc-Olivier Méhu
Technical & hardware support : Manuel Goepfert

Contact : metmap@orbifly.com




SOURCES & CREDITS :

   NOAA